Time,TemperatureF,DewpointF,PressureIn,WindDirection,WindDirectionDegrees,WindSpeedMPH,WindSpeedGustMPH,Humidity,HourlyPrecipIn,Conditions,Clouds,dailyrainin,SoftwareType,DateUTC
2013-06-09 00:00:00,49.0,47.1,30.06,North,5,5.0,5.0,93,0.00,,,0.00,Wunderground v.1.15,2013-06-09 07:00:00,
2013-06-09 00:05:00,49.0,47.1,30.05,NNE,14,5.0,17.0,93,0.00,,,0.00,Wunderground v.1.15,2013-06-09 07:05:00,
2013-06-09 00:10:00,49.0,47.1,30.05,North,11,6.0,7.0,93,0.00,,,0.00,Wunderground v.1.15,2013-06-09 07:10:00,
2013-06-09 00:16:00,49.0,47.1,30.05,NNE,28,6.0,7.0,93,0.00,,,0.00,Wunderground v.1.15,2013-06-09 07:16:00,
2013-06-09 00:21:00,48.9,47.0,30.05,NNE,29,5.0,5.0,93,0.00,,,0.00,Wunderground v.1.15,2013-06-09 07:21:00,
2013-06-09 00:27:00,48.8,46.9,30.06,NNE,17,6.0,6.0,93,0.00,,,0.00,Wunderground v.1.15,2013-06-09 07:27:00,
2013-06-09 00:32:00,48.8,46.9,30.06,NNW,340,6.0,10.0,93,0.00,,,0.00,Wunderground v.1.15,2013-06-09 07:32:00,
2013-06-09 00:37:00,48.7,46.8,30.05,NNE,15,5.0,10.0,93,0.00,,,0.00,Wunderground v.1.15,2013-06-09 07:37:00,
2013-06-09 00:42:00,48.7,46.8,30.05,North,9,5.0,7.0,93,0.00,,,0.00,Wunderground v.1.15,2013-06-09 07:42:00,
2013-06-09 00:48:00,48.7,46.8,30.05,North,355,5.0,7.0,93,0.00,,,0.00,Wunderground v.1.15,2013-06-09 07:48:00,
2013-06-09 00:53:00,48.7,46.8,30.06,NNE,21,5.0,7.0,93,0.00,,,0.00,Wunderground v.1.15,2013-06-09 07:53:00,
2013-06-09 00:59:00,48.7,47.1,30.05,NNE,16,5.0,7.0,94,0.00,,,0.00,Wunderground v.1.15,2013-06-09 07:59:00,
2013-06-09 01:04:00,48.6,47.0,30.05,North,5,5.0,15.0,94,0.00,,,0.00,Wunderground v.1.15,2013-06-09 08:04:00,
2013-06-09 01:10:00,48.6,47.0,30.05,NNE,25,5.0,15.0,94,0.00,,,0.00,Wunderground v.1.15,2013-06-09 08:10:00,
2013-06-09 01:15:00,48.7,47.1,30.05,North,360,5.0,15.0,94,0.00,,,0.00,Wunderground v.1.15,2013-06-09 08:15:00,
2013-06-09 01:20:00,48.8,47.2,30.05,North,350,5.0,15.0,94,0.00,,,0.00,Wunderground v.1.15,2013-06-09 08:20:00,
2013-06-09 01:25:00,48.7,47.1,30.05,NNE,24,5.0,15.0,94,0.00,,,0.00,Wunderground v.1.15,2013-06-09 08:25:00,
2013-06-09 01:30:00,48.7,47.1,30.05,NNE,32,5.0,15.0,94,0.00,,,0.00,Wunderground v.1.15,2013-06-09 08:30:00,
2013-06-09 01:36:00,48.8,47.2,30.05,North,355,6.0,15.0,94,0.00,,,0.00,Wunderground v.1.15,2013-06-09 08:36:00,
2013-06-09 01:42:00,48.8,47.2,30.05,NNE,21,6.0,15.0,94,0.00,,,0.00,Wunderground v.1.15,2013-06-09 08:42:00,
2013-06-09 01:48:00,48.8,47.2,30.05,NNE,17,7.0,15.0,94,0.00,,,0.00,Wunderground v.1.15,2013-06-09 08:48:00,
2013-06-09 01:56:00,48.7,47.1,30.05,NNE,32,6.0,15.0,94,0.00,,,0.00,Wunderground v.1.15,2013-06-09 08:56:00,
2013-06-09 02:01:00,48.7,47.1,30.05,North,355,7.0,12.0,94,0.00,,,0.00,Wunderground v.1.15,2013-06-09 09:01:00,
2013-06-09 02:06:00,48.6,47.0,30.05,NNW,345,7.0,15.0,94,0.00,,,0.00,Wunderground v.1.15,2013-06-09 09:06:00,
2013-06-09 02:12:00,48.7,47.1,30.05,NNE,14,6.0,15.0,94,0.00,,,0.00,Wunderground v.1.15,2013-06-09 09:12:00,
2013-06-09 02:18:00,48.7,47.1,30.05,North,5,7.0,15.0,94,0.00,,,0.00,Wunderground v.1.15,2013-06-09 09:18:00,
2013-06-09 02:24:00,48.7,47.1,30.05,NNE,30,7.0,15.0,94,0.00,,,0.00,Wunderground v.1.15,2013-06-09 09:24:00,
2013-06-09 02:29:00,48.7,47.1,30.05,NNW,344,7.0,15.0,94,0.00,,,0.00,Wunderground v.1.15,2013-06-09 09:29:00,
2013-06-09 02:34:00,48.7,47.1,30.05,NNE,30,8.0,15.0,94,0.00,,,0.00,Wunderground v.1.15,2013-06-09 09:34:00,
2013-06-09 02:40:00,48.7,47.1,30.05,North,355,8.0,15.0,94,0.00,,,0.00,Wunderground v.1.15,2013-06-09 09:40:00,
2013-06-09 02:47:00,48.9,47.5,30.05,NNE,19,9.0,15.0,95,0.00,,,0.00,Wunderground v.1.15,2013-06-09 09:47:00,
2013-06-09 02:52:00,48.8,47.4,30.05,NNE,20,8.0,15.0,95,0.00,,,0.00,Wunderground v.1.15,2013-06-09 09:52:00,
2013-06-09 02:58:00,48.7,47.1,30.05,NNE,24,8.0,18.0,94,0.00,,,0.00,Wunderground v.1.15,2013-06-09 09:58:00,
2013-06-09 03:03:00,48.7,47.1,30.05,North,360,8.0,15.0,94,0.00,,,0.00,Wunderground v.1.15,2013-06-09 10:03:00,
2013-06-09 03:09:00,48.7,47.3,30.05,NNE,30,8.0,15.0,95,0.00,,,0.00,Wunderground v.1.15,2013-06-09 10:09:00,
2013-06-09 03:14:00,48.6,47.0,30.05,North,355,8.0,15.0,94,0.00,,,0.00,Wunderground v.1.15,2013-06-09 10:14:00,
2013-06-09 03:20:00,48.6,47.2,30.05,North,5,8.0,8.0,95,0.00,,,0.00,Wunderground v.1.15,2013-06-09 10:20:00,
2013-06-09 03:26:00,48.5,47.1,30.05,NNE,13,9.0,15.0,95,0.00,,,0.00,Wunderground v.1.15,2013-06-09 10:26:00,
2013-06-09 03:32:00,48.4,47.0,30.05,NNE,30,7.0,15.0,95,0.00,,,0.00,Wunderground v.1.15,2013-06-09 10:32:00,
2013-06-09 03:38:00,48.4,47.0,30.04,North,11,7.0,15.0,95,0.00,,,0.00,Wunderground v.1.15,2013-06-09 10:38:00,
2013-06-09 03:43:00,48.3,46.9,30.05,North,355,7.0,15.0,95,0.00,,,0.00,Wunderground v.1.15,2013-06-09 10:43:00,
2013-06-09 03:49:00,48.3,46.9,30.04,NNW,337,7.0,15.0,95,0.00,,,0.00,Wunderground v.1.15,2013-06-09 10:49:00,
2013-06-09 03:54:00,48.3,46.9,30.04,NE,41,7.0,15.0,95,0.00,,,0.00,Wunderground v.1.15,2013-06-09 10:54:00,
2013-06-09 04:00:00,48.3,46.9,30.04,NNE,22,7.0,7.0,95,0.00,,,0.00,Wunderground v.1.15,2013-06-09 11:00:00,
2013-06-09 04:05:00,48.2,46.8,30.04,NNE,14,7.0,15.0,95,0.00,,,0.00,Wunderground v.1.15,2013-06-09 11:05:00,
2013-06-09 04:10:00,48.2,46.8,30.04,NNE,22,8.0,8.0,95,0.00,,,0.00,Wunderground v.1.15,2013-06-09 11:10:00,
2013-06-09 04:15:00,48.3,46.9,30.04,North,5,8.0,15.0,95,0.00,,,0.00,Wunderground v.1.15,2013-06-09 11:15:00,
2013-06-09 04:21:00,48.3,46.9,30.04,NE,39,7.0,15.0,95,0.00,,,0.00,Wunderground v.1.15,2013-06-09 11:21:00,
2013-06-09 04:27:00,48.2,46.8,30.03,NNE,15,8.0,15.0,95,0.00,,,0.00,Wunderground v.1.15,2013-06-09 11:27:00,
2013-06-09 04:32:00,48.2,46.8,30.03,NNW,344,8.0,15.0,95,0.00,,,0.00,Wunderground v.1.15,2013-06-09 11:32:00,
2013-06-09 04:37:00,48.2,46.8,30.03,North,10,8.0,15.0,95,0.00,,,0.00,Wunderground v.1.15,2013-06-09 11:37:00,
2013-06-09 04:43:00,48.2,46.8,30.03,NNE,26,8.0,15.0,95,0.00,,,0.00,Wunderground v.1.15,2013-06-09 11:43:00,
2013-06-09 04:48:00,48.1,46.7,30.03,NE,35,8.0,15.0,95,0.00,,,0.00,Wunderground v.1.15,2013-06-09 11:48:00,
2013-06-09 04:54:00,48.0,46.4,30.03,North,355,7.0,15.0,94,0.00,,,0.00,Wunderground v.1.15,2013-06-09 11:54:00,
2013-06-09 05:00:00,47.9,46.3,30.03,NNW,348,7.0,15.0,94,0.00,,,0.00,Wunderground v.1.15,2013-06-09 12:00:00,
2013-06-09 05:06:00,47.9,46.3,30.03,NNE,17,7.0,15.0,94,0.00,,,0.00,Wunderground v.1.15,2013-06-09 12:06:00,
2013-06-09 05:11:00,47.8,46.2,30.03,NNE,19,8.0,15.0,94,0.00,,,0.00,Wunderground v.1.15,2013-06-09 12:11:00,
2013-06-09 05:16:00,47.9,46.3,30.03,ENE,61,7.0,15.0,94,0.00,,,0.00,Wunderground v.1.15,2013-06-09 12:16:00,
2013-06-09 05:22:00,47.8,46.2,30.03,NE,53,7.0,15.0,94,0.00,,,0.00,Wunderground v.1.15,2013-06-09 12:22:00,
2013-06-09 05:27:00,47.7,46.1,30.03,NNE,13,7.0,15.0,94,0.00,,,0.00,Wunderground v.1.15,2013-06-09 12:27:00,
2013-06-09 05:33:00,47.7,46.1,30.04,NNE,22,7.0,15.0,94,0.00,,,0.00,Wunderground v.1.15,2013-06-09 12:33:00,
2013-06-09 05:38:00,47.7,46.1,30.04,NE,54,7.0,15.0,94,0.00,,,0.00,Wunderground v.1.15,2013-06-09 12:38:00,
2013-06-09 05:43:00,47.6,46.0,30.04,NNE,28,7.0,15.0,94,0.00,,,0.00,Wunderground v.1.15,2013-06-09 12:43:00,
2013-06-09 05:49:00,47.5,45.9,30.04,NNE,17,7.0,15.0,94,0.00,,,0.00,Wunderground v.1.15,2013-06-09 12:49:00,
2013-06-09 05:54:00,47.5,45.9,30.04,ENE,69,6.0,15.0,94,0.00,,,0.00,Wunderground v.1.15,2013-06-09 12:54:00,
2013-06-09 06:00:00,47.5,45.9,30.04,NE,40,6.0,6.0,94,0.00,,,0.00,Wunderground v.1.15,2013-06-09 13:00:00,
2013-06-09 06:06:00,47.5,45.9,30.04,North,5,6.0,15.0,94,0.00,,,0.00,Wunderground v.1.15,2013-06-09 13:06:00,
2013-06-09 06:11:00,47.7,46.1,30.04,NE,39,6.0,15.0,94,0.00,,,0.00,Wunderground v.1.15,2013-06-09 13:11:00,
2013-06-09 06:17:00,47.9,46.3,30.04,NE,38,6.0,15.0,94,0.00,,,0.00,Wunderground v.1.15,2013-06-09 13:17:00,
2013-06-09 06:23:00,48.0,46.4,30.05,NNE,32,6.0,15.0,94,0.00,,,0.00,Wunderground v.1.15,2013-06-09 13:23:00,
2013-06-09 06:29:00,48.1,46.5,30.04,NNE,30,7.0,15.0,94,0.00,,,0.00,Wunderground v.1.15,2013-06-09 13:29:00,
2013-06-09 06:35:00,48.4,46.8,30.04,NNE,26,8.0,15.0,94,0.00,,,0.00,Wunderground v.1.15,2013-06-09 13:35:00,
2013-06-09 06:40:00,48.6,46.7,30.05,NNE,13,9.0,9.0,93,0.00,,,0.00,Wunderground v.1.15,2013-06-09 13:40:00,
2013-06-09 06:45:00,48.7,46.8,30.05,NNE,21,9.0,15.0,93,0.00,,,0.00,Wunderground v.1.15,2013-06-09 13:45:00,
2013-06-09 06:50:00,48.8,46.9,30.05,NNE,27,8.0,15.0,93,0.00,,,0.00,Wunderground v.1.15,2013-06-09 13:50:00,
2013-06-09 06:56:00,49.0,47.1,30.05,North,360,8.0,15.0,93,0.00,,,0.00,Wunderground v.1.15,2013-06-09 13:56:00,
2013-06-09 07:01:00,49.1,46.9,30.05,NE,44,8.0,15.0,92,0.00,,,0.00,Wunderground v.1.15,2013-06-09 14:01:00,
2013-06-09 07:07:00,49.3,47.1,30.04,North,11,8.0,15.0,92,0.00,,,0.00,Wunderground v.1.15,2013-06-09 14:07:00,
2013-06-09 07:12:00,49.4,47.2,30.05,ENE,65,8.0,15.0,92,0.00,,,0.00,Wunderground v.1.15,2013-06-09 14:12:00,
2013-06-09 07:18:00,49.5,47.3,30.05,NNW,344,9.0,15.0,92,0.00,,,0.00,Wunderground v.1.15,2013-06-09 14:18:00,
2013-06-09 07:23:00,49.6,47.1,30.05,NNE,32,9.0,17.0,91,0.00,,,0.00,Wunderground v.1.15,2013-06-09 14:23:00,
2013-06-09 07:28:00,49.7,47.2,30.05,NNE,30,9.0,17.0,91,0.00,,,0.00,Wunderground v.1.15,2013-06-09 14:28:00,
2013-06-09 07:33:00,49.8,47.3,30.05,North,355,8.0,15.0,91,0.00,,,0.00,Wunderground v.1.15,2013-06-09 14:33:00,
2013-06-09 07:39:00,49.9,47.4,30.05,NE,50,8.0,15.0,91,0.00,,,0.00,Wunderground v.1.15,2013-06-09 14:39:00,
2013-06-09 07:44:00,49.9,47.4,30.05,NE,38,8.0,15.0,91,0.00,,,0.00,Wunderground v.1.15,2013-06-09 14:44:00,
2013-06-09 07:50:00,50.1,47.6,30.05,North,5,7.0,7.0,91,0.00,,,0.00,Wunderground v.1.15,2013-06-09 14:50:00,
2013-06-09 07:56:00,50.3,47.5,30.05,NNE,23,7.0,15.0,90,0.00,,,0.00,Wunderground v.1.15,2013-06-09 14:56:00,
2013-06-09 08:02:00,50.5,47.7,30.05,North,355,8.0,15.0,90,0.00,,,0.00,Wunderground v.1.15,2013-06-09 15:02:00,
2013-06-09 08:08:00,50.7,47.6,30.05,NNE,32,8.0,15.0,89,0.00,,,0.00,Wunderground v.1.15,2013-06-09 15:08:00,
2013-06-09 08:13:00,50.7,47.6,30.05,North,10,8.0,15.0,89,0.00,,,0.00,Wunderground v.1.15,2013-06-09 15:13:00,
2013-06-09 08:19:00,50.8,47.7,30.05,NNE,28,8.0,15.0,89,0.00,,,0.00,Wunderground v.1.15,2013-06-09 15:19:00,
2013-06-09 08:25:00,50.9,47.8,30.05,North,9,8.0,15.0,89,0.00,,,0.00,Wunderground v.1.15,2013-06-09 15:25:00,
2013-06-09 08:30:00,50.9,47.8,30.05,NE,40,9.0,9.0,89,0.00,,,0.00,Wunderground v.1.15,2013-06-09 15:30:00,
2013-06-09 08:35:00,50.9,47.8,30.05,NNW,338,9.0,15.0,89,0.00,,,0.00,Wunderground v.1.15,2013-06-09 15:35:00,
2013-06-09 08:41:00,50.9,47.5,30.05,North,355,9.0,15.0,88,0.00,,,0.00,Wunderground v.1.15,2013-06-09 15:41:00,
2013-06-09 08:46:00,50.7,47.3,30.05,NE,47,9.0,16.0,88,0.00,,,0.00,Wunderground v.1.15,2013-06-09 15:46:00,
2013-06-09 08:51:00,50.2,47.1,30.05,NNW,343,11.0,16.0,89,0.00,,,0.00,Wunderground v.1.15,2013-06-09 15:51:00,
2013-06-09 08:56:00,50.3,47.2,30.05,NNW,336,11.0,16.0,89,0.00,,,0.00,Wunderground v.1.15,2013-06-09 15:56:00,
2013-06-09 09:02:00,50.4,47.3,30.05,NNE,19,10.0,16.0,89,0.00,,,0.00,Wunderground v.1.15,2013-06-09 16:02:00,
2013-06-09 09:07:00,50.4,47.3,30.05,North,360,12.0,17.0,89,0.00,,,0.00,Wunderground v.1.15,2013-06-09 16:07:00,
2013-06-09 09:13:00,50.4,47.3,30.05,NNE,20,13.0,18.0,89,0.00,,,0.00,Wunderground v.1.15,2013-06-09 16:13:00,
2013-06-09 09:18:00,50.4,47.3,30.05,North,351,16.0,24.0,89,0.00,,,0.00,Wunderground v.1.15,2013-06-09 16:18:00,
2013-06-09 09:24:00,50.5,47.1,30.05,NNW,342,16.0,21.0,88,0.00,,,0.00,Wunderground v.1.15,2013-06-09 16:24:00,
2013-06-09 09:30:00,50.5,47.1,30.05,North,351,16.0,18.0,88,0.00,,,0.00,Wunderground v.1.15,2013-06-09 16:30:00,
2013-06-09 09:35:00,50.5,47.1,30.05,NNE,20,17.0,25.0,88,0.00,,,0.00,Wunderground v.1.15,2013-06-09 16:35:00,
2013-06-09 09:40:00,50.2,46.8,30.05,North,5,18.0,23.0,88,0.00,,,0.00,Wunderground v.1.15,2013-06-09 16:40:00,
2013-06-09 09:46:00,49.9,46.5,30.05,North,355,19.0,23.0,88,0.00,,,0.00,Wunderground v.1.15,2013-06-09 16:46:00,
2013-06-09 09:52:00,49.7,46.6,30.05,North,5,19.0,19.0,89,0.00,,,0.00,Wunderground v.1.15,2013-06-09 16:52:00,
2013-06-09 09:57:00,49.7,46.6,30.05,North,355,20.0,22.0,89,0.00,,,0.00,Wunderground v.1.15,2013-06-09 16:57:00,
2013-06-09 10:03:00,49.8,46.7,30.04,NNE,27,20.0,20.0,89,0.00,,,0.00,Wunderground v.1.15,2013-06-09 17:03:00,
2013-06-09 10:09:00,49.9,46.8,30.04,North,355,21.0,23.0,89,0.00,,,0.00,Wunderground v.1.15,2013-06-09 17:09:00,
2013-06-09 10:14:00,49.9,46.8,30.04,NNW,345,20.0,25.0,89,0.00,,,0.00,Wunderground v.1.15,2013-06-09 17:14:00,
2013-06-09 10:20:00,49.9,46.5,30.04,North,351,21.0,23.0,88,0.00,,,0.00,Wunderground v.1.15,2013-06-09 17:20:00,
2013-06-09 10:26:00,49.9,46.5,30.04,North,5,22.0,23.0,88,0.00,,,0.00,Wunderground v.1.15,2013-06-09 17:26:00,
2013-06-09 10:32:00,50.0,46.6,30.04,NNW,347,21.0,26.0,88,0.00,,,0.00,Wunderground v.1.15,2013-06-09 17:32:00,
2013-06-09 10:37:00,50.0,46.6,30.04,North,5,22.0,26.0,88,0.00,,,0.00,Wunderground v.1.15,2013-06-09 17:37:00,
2013-06-09 10:43:00,50.1,46.7,30.04,North,355,22.0,23.0,88,0.00,,,0.00,Wunderground v.1.15,2013-06-09 17:43:00,
2013-06-09 10:48:00,50.1,46.7,30.04,North,355,22.0,26.0,88,0.00,,,0.00,Wunderground v.1.15,2013-06-09 17:48:00,
2013-06-09 10:54:00,50.1,46.7,30.04,NNE,12,22.0,30.0,88,0.00,,,0.00,Wunderground v.1.15,2013-06-09 17:54:00,
2013-06-09 11:00:00,50.3,46.9,30.04,NNE,20,22.0,22.0,88,0.00,,,0.00,Wunderground v.1.15,2013-06-09 18:00:00,
2013-06-09 11:06:00,50.2,46.8,30.04,North,355,22.0,22.0,88,0.00,,,0.00,Wunderground v.1.15,2013-06-09 18:06:00,
2013-06-09 11:12:00,50.2,46.8,30.04,North,5,22.0,25.0,88,0.00,,,0.00,Wunderground v.1.15,2013-06-09 18:12:00,
2013-06-09 11:18:00,50.1,47.0,30.04,NNE,21,22.0,28.0,89,0.00,,,0.00,Wunderground v.1.15,2013-06-09 18:18:00,
2013-06-09 11:24:00,50.2,47.1,30.05,NNW,332,22.0,27.0,89,0.00,,,0.00,Wunderground v.1.15,2013-06-09 18:24:00,
2013-06-09 11:29:00,50.2,46.8,30.05,NNE,33,21.0,27.0,88,0.00,,,0.00,Wunderground v.1.15,2013-06-09 18:29:00,
2013-06-09 11:34:00,50.2,47.1,30.04,North,360,21.0,27.0,89,0.00,,,0.00,Wunderground v.1.15,2013-06-09 18:34:00,
2013-06-09 11:40:00,50.1,47.0,30.05,NNW,347,21.0,22.0,89,0.00,,,0.00,Wunderground v.1.15,2013-06-09 18:40:00,
2013-06-09 11:46:00,50.0,46.9,30.05,North,5,21.0,25.0,89,0.00,,,0.00,Wunderground v.1.15,2013-06-09 18:46:00,
2013-06-09 11:52:00,50.0,46.9,30.05,North,360,21.0,25.0,89,0.00,,,0.00,Wunderground v.1.15,2013-06-09 18:52:00,
2013-06-09 11:57:00,50.1,47.0,30.05,North,355,20.0,25.0,89,0.00,,,0.00,Wunderground v.1.15,2013-06-09 18:57:00,
2013-06-09 12:03:00,49.9,46.8,30.05,North,5,20.0,21.0,89,0.00,,,0.00,Wunderground v.1.15,2013-06-09 19:03:00,
2013-06-09 12:09:00,49.9,46.8,30.05,North,5,20.0,23.0,89,0.00,,,0.00,Wunderground v.1.15,2013-06-09 19:09:00,
2013-06-09 12:14:00,50.1,47.0,30.05,NNE,15,20.0,22.0,89,0.00,,,0.00,Wunderground v.1.15,2013-06-09 19:14:00,
2013-06-09 12:19:00,50.3,47.2,30.05,North,350,20.0,22.0,89,0.00,,,0.00,Wunderground v.1.15,2013-06-09 19:19:00,
2013-06-09 12:25:00,50.6,47.2,30.05,NNW,331,17.0,21.0,88,0.00,,,0.00,Wunderground v.1.15,2013-06-09 19:25:00,
2013-06-09 12:32:00,50.6,46.9,30.05,North,5,17.0,22.0,87,0.00,,,0.00,Wunderground v.1.15,2013-06-09 19:32:00,
2013-06-09 12:37:00,50.7,47.0,30.05,North,5,18.0,22.0,87,0.00,,,0.00,Wunderground v.1.15,2013-06-09 19:37:00,
2013-06-09 12:43:00,51.0,47.0,30.05,NNW,348,17.0,22.0,86,0.00,,,0.00,Wunderground v.1.15,2013-06-09 19:43:00,
2013-06-09 12:49:00,50.8,47.1,30.05,NNE,17,18.0,24.0,87,0.00,,,0.00,Wunderground v.1.15,2013-06-09 19:49:00,
2013-06-09 12:54:00,50.6,46.9,30.05,NNW,348,19.0,28.0,87,0.00,,,0.00,Wunderground v.1.15,2013-06-09 19:54:00,
2013-06-09 13:00:00,50.5,46.8,30.04,NNE,17,20.0,22.0,87,0.00,,,0.00,Wunderground v.1.15,2013-06-09 20:00:00,
2013-06-09 13:06:00,50.4,47.0,30.04,North,355,20.0,24.0,88,0.00,,,0.00,Wunderground v.1.15,2013-06-09 20:06:00,
2013-06-09 13:12:00,50.6,47.2,30.04,NE,34,19.0,20.0,88,0.00,,,0.00,Wunderground v.1.15,2013-06-09 20:12:00,
2013-06-09 13:18:00,50.6,47.2,30.04,North,360,18.0,23.0,88,0.00,,,0.00,Wunderground v.1.15,2013-06-09 20:18:00,
2013-06-09 13:23:00,50.5,47.1,30.04,NNE,15,19.0,24.0,88,0.00,,,0.00,Wunderground v.1.15,2013-06-09 20:23:00,
2013-06-09 13:29:00,50.8,47.4,30.04,NE,37,19.0,24.0,88,0.00,,,0.00,Wunderground v.1.15,2013-06-09 20:29:00,
2013-06-09 13:35:00,51.1,47.7,30.04,NNW,347,17.0,23.0,88,0.00,,,0.00,Wunderground v.1.15,2013-06-09 20:35:00,
2013-06-09 13:40:00,51.0,47.6,30.04,North,5,16.0,19.0,88,0.00,,,0.00,Wunderground v.1.15,2013-06-09 20:40:00,
2013-06-09 13:46:00,51.0,47.6,30.04,North,355,16.0,22.0,88,0.00,,,0.00,Wunderground v.1.15,2013-06-09 20:46:00,
2013-06-09 13:52:00,50.8,47.7,30.03,North,349,18.0,19.0,89,0.00,,,0.00,Wunderground v.1.15,2013-06-09 20:52:00,
2013-06-09 13:57:00,50.8,47.7,30.04,NNW,342,19.0,24.0,89,0.00,,,0.00,Wunderground v.1.15,2013-06-09 20:57:00,
2013-06-09 14:03:00,50.9,47.8,30.04,North,350,20.0,22.0,89,0.00,,,0.00,Wunderground v.1.15,2013-06-09 21:03:00,
2013-06-09 14:09:00,51.1,48.0,30.04,ENE,57,18.0,22.0,89,0.00,,,0.00,Wunderground v.1.15,2013-06-09 21:09:00,
2013-06-09 14:15:00,51.2,48.1,30.03,North,349,17.0,22.0,89,0.00,,,0.00,Wunderground v.1.15,2013-06-09 21:15:00,
2013-06-09 14:20:00,51.2,48.1,30.04,NNE,23,17.0,17.0,89,0.00,,,0.00,Wunderground v.1.15,2013-06-09 21:20:00,
2013-06-09 14:25:00,51.2,48.1,30.03,NNW,345,18.0,24.0,89,0.00,,,0.00,Wunderground v.1.15,2013-06-09 21:25:00,
2013-06-09 14:31:00,51.0,47.9,30.03,NNW,341,19.0,24.0,89,0.00,,,0.00,Wunderground v.1.15,2013-06-09 21:31:00,
2013-06-09 14:36:00,50.9,48.1,30.03,North,355,19.0,24.0,90,0.00,,,0.00,Wunderground v.1.15,2013-06-09 21:36:00,
2013-06-09 14:42:00,50.8,48.0,30.02,NNW,346,21.0,22.0,90,0.00,,,0.00,Wunderground v.1.15,2013-06-09 21:42:00,
2013-06-09 14:48:00,50.8,48.0,30.02,North,355,22.0,25.0,90,0.00,,,0.00,Wunderground v.1.15,2013-06-09 21:48:00,
2013-06-09 14:53:00,50.9,48.1,30.02,North,351,23.0,25.0,90,0.00,,,0.00,Wunderground v.1.15,2013-06-09 21:53:00,
2013-06-09 14:59:00,50.9,47.8,30.01,North,355,24.0,28.0,89,0.00,,,0.00,Wunderground v.1.15,2013-06-09 21:59:00,
2013-06-09 15:05:00,50.7,47.6,30.02,North,351,24.0,26.0,89,0.00,,,0.00,Wunderground v.1.15,2013-06-09 22:05:00,
2013-06-09 15:11:00,50.5,47.4,30.02,North,360,23.0,23.0,89,0.00,,,0.00,Wunderground v.1.15,2013-06-09 22:11:00,
2013-06-09 15:16:00,50.4,47.3,30.02,North,355,22.0,25.0,89,0.00,,,0.00,Wunderground v.1.15,2013-06-09 22:16:00,
2013-06-09 15:22:00,50.4,47.3,30.02,North,5,21.0,22.0,89,0.00,,,0.00,Wunderground v.1.15,2013-06-09 22:22:00,
2013-06-09 15:27:00,50.4,47.3,30.02,North,360,21.0,24.0,89,0.00,,,0.00,Wunderground v.1.15,2013-06-09 22:27:00,
2013-06-09 15:32:00,50.5,47.4,30.02,NNW,347,20.0,21.0,89,0.00,,,0.00,Wunderground v.1.15,2013-06-09 22:32:00,
2013-06-09 15:38:00,50.5,47.1,30.02,North,355,20.0,24.0,88,0.00,,,0.00,Wunderground v.1.15,2013-06-09 22:38:00,
2013-06-09 15:43:00,50.5,47.1,30.02,NNW,344,20.0,24.0,88,0.00,,,0.00,Wunderground v.1.15,2013-06-09 22:43:00,
2013-06-09 15:48:00,50.6,47.5,30.01,NNE,27,20.0,25.0,89,0.00,,,0.00,Wunderground v.1.15,2013-06-09 22:48:00,
2013-06-09 15:54:00,50.7,47.3,30.01,North,355,20.0,22.0,88,0.00,,,0.00,Wunderground v.1.15,2013-06-09 22:54:00,
2013-06-09 15:59:00,50.8,47.7,30.01,North,5,20.0,23.0,89,0.00,,,0.00,Wunderground v.1.15,2013-06-09 22:59:00,
2013-06-09 16:04:00,51.0,47.9,30.02,NNW,346,19.0,25.0,89,0.00,,,0.00,Wunderground v.1.15,2013-06-09 23:04:00,
2013-06-09 16:10:00,51.2,47.8,30.01,North,360,17.0,17.0,88,0.00,,,0.00,Wunderground v.1.15,2013-06-09 23:10:00,
2013-06-09 16:15:00,51.0,47.9,30.01,North,360,17.0,22.0,89,0.00,,,0.00,Wunderground v.1.15,2013-06-09 23:15:00,
2013-06-09 16:20:00,50.8,47.7,30.01,North,351,19.0,22.0,89,0.00,,,0.00,Wunderground v.1.15,2013-06-09 23:20:00,
2013-06-09 16:25:00,50.8,47.7,30.01,North,355,19.0,22.0,89,0.00,,,0.00,Wunderground v.1.15,2013-06-09 23:25:00,
2013-06-09 16:31:00,51.0,48.2,30.02,North,5,18.0,19.0,90,0.00,,,0.00,Wunderground v.1.15,2013-06-09 23:31:00,
2013-06-09 16:37:00,51.0,48.2,30.02,North,355,16.0,19.0,90,0.00,,,0.00,Wunderground v.1.15,2013-06-09 23:37:00,
2013-06-09 16:42:00,51.2,48.4,30.02,North,355,15.0,18.0,90,0.00,,,0.00,Wunderground v.1.15,2013-06-09 23:42:00,
2013-06-09 16:48:00,51.3,48.8,30.02,NE,43,14.0,18.0,91,0.00,,,0.00,Wunderground v.1.15,2013-06-09 23:48:00,
2013-06-09 16:53:00,51.4,48.9,30.02,North,350,13.0,16.0,91,0.00,,,0.00,Wunderground v.1.15,2013-06-09 23:53:00,
2013-06-09 16:59:00,51.5,49.0,30.02,North,355,12.0,16.0,91,0.00,,,0.00,Wunderground v.1.15,2013-06-09 23:59:00,
2013-06-09 17:05:00,51.5,49.0,30.02,North,349,11.0,15.0,91,0.00,,,0.00,Wunderground v.1.15,2013-06-10 00:05:00,
2013-06-09 17:10:00,51.4,48.9,30.02,North,349,12.0,12.0,91,0.00,,,0.00,Wunderground v.1.15,2013-06-10 00:10:00,
2013-06-09 17:16:00,51.4,48.9,30.02,North,355,12.0,17.0,91,0.00,,,0.00,Wunderground v.1.15,2013-06-10 00:16:00,
2013-06-09 17:22:00,51.5,49.3,30.02,NE,39,12.0,15.0,92,0.00,,,0.00,Wunderground v.1.15,2013-06-10 00:22:00,
2013-06-09 17:27:00,51.5,49.0,30.02,North,5,11.0,15.0,91,0.00,,,0.00,Wunderground v.1.15,2013-06-10 00:27:00,
2013-06-09 17:33:00,51.7,49.2,30.02,NNE,22,9.0,15.0,91,0.00,,,0.00,Wunderground v.1.15,2013-06-10 00:33:00,
2013-06-09 17:38:00,51.7,49.2,30.01,NE,34,9.0,15.0,91,0.00,,,0.00,Wunderground v.1.15,2013-06-10 00:38:00,
2013-06-09 17:44:00,51.7,49.2,30.01,North,5,9.0,15.0,91,0.00,,,0.00,Wunderground v.1.15,2013-06-10 00:44:00,
2013-06-09 17:50:00,51.7,49.2,30.01,NNW,346,9.0,9.0,91,0.00,,,0.00,Wunderground v.1.15,2013-06-10 00:50:00,
2013-06-09 17:55:00,51.4,48.9,30.01,North,355,10.0,20.0,91,0.00,,,0.00,Wunderground v.1.15,2013-06-10 00:55:00,
2013-06-09 18:00:00,51.0,48.5,30.01,NE,48,13.0,13.0,91,0.00,,,0.00,Wunderground v.1.15,2013-06-10 01:00:00,
2013-06-09 18:06:00,50.8,48.6,30.01,North,360,15.0,22.0,92,0.00,,,0.00,Wunderground v.1.15,2013-06-10 01:06:00,
2013-06-09 18:12:00,50.8,48.6,30.01,NE,44,16.0,21.0,92,0.00,,,0.00,Wunderground v.1.15,2013-06-10 01:12:00,
2013-06-09 18:18:00,50.8,48.3,30.00,North,5,16.0,21.0,91,0.00,,,0.00,Wunderground v.1.15,2013-06-10 01:18:00,
2013-06-09 18:23:00,50.9,48.4,30.00,North,350,16.0,21.0,91,0.00,,,0.00,Wunderground v.1.15,2013-06-10 01:23:00,
2013-06-09 18:29:00,51.0,48.5,30.00,NNE,14,17.0,23.0,91,0.00,,,0.00,Wunderground v.1.15,2013-06-10 01:29:00,
2013-06-09 18:34:00,50.9,48.4,30.00,North,355,18.0,22.0,91,0.00,,,0.00,Wunderground v.1.15,2013-06-10 01:34:00,
2013-06-09 18:39:00,50.8,48.3,30.00,North,360,20.0,26.0,91,0.00,,,0.00,Wunderground v.1.15,2013-06-10 01:39:00,
2013-06-09 18:45:00,50.8,48.3,30.00,North,5,21.0,26.0,91,0.00,,,0.00,Wunderground v.1.15,2013-06-10 01:45:00,
2013-06-09 18:50:00,50.7,48.2,30.00,NNE,19,20.0,20.0,91,0.00,,,0.00,Wunderground v.1.15,2013-06-10 01:50:00,
2013-06-09 18:55:00,50.7,48.2,29.99,NNW,347,20.0,24.0,91,0.00,,,0.00,Wunderground v.1.15,2013-06-10 01:55:00,
2013-06-09 19:01:00,50.7,48.2,30.00,North,360,19.0,19.0,91,0.00,,,0.00,Wunderground v.1.15,2013-06-10 02:01:00,
2013-06-09 19:07:00,50.5,48.0,30.00,North,355,19.0,22.0,91,0.00,,,0.00,Wunderground v.1.15,2013-06-10 02:07:00,
2013-06-09 19:12:00,50.5,48.0,30.00,NNW,344,18.0,19.0,91,0.00,,,0.00,Wunderground v.1.15,2013-06-10 02:12:00,
2013-06-09 19:18:00,50.6,48.1,30.00,NNW,348,16.0,21.0,91,0.00,,,0.00,Wunderground v.1.15,2013-06-10 02:18:00,
2013-06-09 19:24:00,50.6,48.1,30.00,NNW,346,14.0,21.0,91,0.00,,,0.00,Wunderground v.1.15,2013-06-10 02:24:00,
2013-06-09 19:30:00,50.7,48.2,30.00,North,355,12.0,15.0,91,0.00,,,0.00,Wunderground v.1.15,2013-06-10 02:30:00,
2013-06-09 19:35:00,50.6,48.1,30.00,North,5,11.0,17.0,91,0.00,,,0.00,Wunderground v.1.15,2013-06-10 02:35:00,
2013-06-09 19:40:00,50.6,47.8,30.00,North,5,11.0,16.0,90,0.00,,,0.00,Wunderground v.1.15,2013-06-10 02:40:00,
2013-06-09 19:47:00,50.5,47.7,30.01,North,360,10.0,16.0,90,0.00,,,0.00,Wunderground v.1.15,2013-06-10 02:47:00,
2013-06-09 19:53:00,50.4,47.6,30.00,North,5,9.0,15.0,90,0.00,,,0.00,Wunderground v.1.15,2013-06-10 02:53:00,
2013-06-09 19:59:00,50.3,47.5,30.01,NNE,26,8.0,15.0,90,0.00,,,0.00,Wunderground v.1.15,2013-06-10 02:59:00,
2013-06-09 20:05:00,50.3,47.5,30.01,NNW,340,8.0,15.0,90,0.00,,,0.00,Wunderground v.1.15,2013-06-10 03:05:00,
2013-06-09 20:11:00,50.2,47.4,30.01,North,355,8.0,15.0,90,0.00,,,0.00,Wunderground v.1.15,2013-06-10 03:11:00,
2013-06-09 20:16:00,50.1,47.3,30.01,North,360,8.0,15.0,90,0.00,,,0.00,Wunderground v.1.15,2013-06-10 03:16:00,
2013-06-09 20:22:00,50.0,47.2,30.01,North,360,8.0,15.0,90,0.00,,,0.00,Wunderground v.1.15,2013-06-10 03:22:00,
2013-06-09 20:27:00,49.8,47.0,30.01,North,5,8.0,15.0,90,0.00,,,0.00,Wunderground v.1.15,2013-06-10 03:27:00,
2013-06-09 20:32:00,49.6,46.8,30.01,NNE,29,8.0,15.0,90,0.00,,,0.00,Wunderground v.1.15,2013-06-10 03:32:00,
2013-06-09 20:37:00,49.5,46.7,30.01,ENE,61,8.0,15.0,90,0.00,,,0.00,Wunderground v.1.15,2013-06-10 03:37:00,
2013-06-09 20:42:00,49.3,46.5,30.01,NNE,18,8.0,15.0,90,0.00,,,0.00,Wunderground v.1.15,2013-06-10 03:42:00,
2013-06-09 20:48:00,49.1,46.3,30.01,North,5,8.0,15.0,90,0.00,,,0.00,Wunderground v.1.15,2013-06-10 03:48:00,
2013-06-09 20:53:00,48.9,46.4,30.01,North,5,8.0,15.0,91,0.00,,,0.00,Wunderground v.1.15,2013-06-10 03:53:00,
2013-06-09 20:58:00,48.8,46.3,30.01,North,5,8.0,15.0,91,0.00,,,0.00,Wunderground v.1.15,2013-06-10 03:58:00,
2013-06-09 21:01:00,48.8,46.3,30.01,NNE,14,8.0,15.0,91,0.00,,,0.00,Wunderground v.1.15,2013-06-10 04:01:00,
2013-06-09 21:02:00,48.7,46.2,30.01,NNE,24,8.0,15.0,91,0.00,,,0.00,Wunderground v.1.15,2013-06-10 04:02:00,
2013-06-09 21:03:00,48.7,46.2,30.01,North,355,8.0,15.0,91,0.00,,,0.00,Wunderground v.1.15,2013-06-10 04:03:00,
2013-06-09 21:07:00,48.6,46.1,30.01,North,10,7.0,15.0,91,0.00,,,0.00,Wunderground v.1.15,2013-06-10 04:07:00,
2013-06-09 21:10:00,48.5,46.0,30.01,North,355,7.0,15.0,91,0.00,,,0.00,Wunderground v.1.15,2013-06-10 04:10:00,
2013-06-09 21:17:00,48.5,46.0,30.01,NNE,16,7.0,15.0,91,0.00,,,0.00,Wunderground v.1.15,2013-06-10 04:17:00,
2013-06-09 21:22:00,48.4,45.9,30.01,NNE,14,8.0,15.0,91,0.00,,,0.00,Wunderground v.1.15,2013-06-10 04:22:00,
2013-06-09 21:28:00,48.3,45.8,30.01,North,355,7.0,15.0,91,0.00,,,0.00,Wunderground v.1.15,2013-06-10 04:28:00,
2013-06-09 21:33:00,48.3,45.8,30.01,NNE,15,7.0,15.0,91,0.00,,,0.00,Wunderground v.1.15,2013-06-10 04:33:00,
2013-06-09 21:38:00,48.3,45.8,30.01,ENE,73,7.0,15.0,91,0.00,,,0.00,Wunderground v.1.15,2013-06-10 04:38:00,
2013-06-09 21:43:00,48.3,45.8,30.01,NNE,32,7.0,15.0,91,0.00,,,0.00,Wunderground v.1.15,2013-06-10 04:43:00,
2013-06-09 21:48:00,48.3,45.8,30.01,NNE,24,7.0,15.0,91,0.00,,,0.00,Wunderground v.1.15,2013-06-10 04:48:00,
2013-06-09 21:53:00,48.2,45.7,30.01,North,360,7.0,15.0,91,0.00,,,0.00,Wunderground v.1.15,2013-06-10 04:53:00,
2013-06-09 21:59:00,48.2,45.7,30.01,NNE,15,7.0,15.0,91,0.00,,,0.00,Wunderground v.1.15,2013-06-10 04:59:00,
2013-06-09 22:04:00,48.2,45.7,30.01,NE,38,8.0,15.0,91,0.00,,,0.00,Wunderground v.1.15,2013-06-10 05:04:00,
2013-06-09 22:10:00,48.1,45.6,30.02,North,355,8.0,15.0,91,0.00,,,0.00,Wunderground v.1.15,2013-06-10 05:10:00,
2013-06-09 22:16:00,48.2,45.7,30.02,NE,54,8.0,15.0,91,0.00,,,0.00,Wunderground v.1.15,2013-06-10 05:16:00,
2013-06-09 22:22:00,48.2,45.7,30.02,NNW,336,7.0,15.0,91,0.00,,,0.00,Wunderground v.1.15,2013-06-10 05:22:00,
2013-06-09 22:27:00,48.1,45.6,30.02,NNW,333,6.0,15.0,91,0.00,,,0.00,Wunderground v.1.15,2013-06-10 05:27:00,
2013-06-09 22:33:00,48.1,45.6,30.02,NNE,33,6.0,15.0,91,0.00,,,0.00,Wunderground v.1.15,2013-06-10 05:33:00,
2013-06-09 22:38:00,48.2,45.7,30.02,North,5,6.0,15.0,91,0.00,,,0.00,Wunderground v.1.15,2013-06-10 05:38:00,
2013-06-09 22:44:00,48.3,45.8,30.02,NNE,12,7.0,15.0,91,0.00,,,0.00,Wunderground v.1.15,2013-06-10 05:44:00,
2013-06-09 22:49:00,48.3,45.8,30.02,North,11,7.0,15.0,91,0.00,,,0.00,Wunderground v.1.15,2013-06-10 05:49:00,
2013-06-09 22:54:00,48.4,45.9,30.02,NNE,17,7.0,15.0,91,0.00,,,0.00,Wunderground v.1.15,2013-06-10 05:54:00,
2013-06-09 23:00:00,48.5,45.7,30.02,North,5,7.0,15.0,90,0.00,,,0.00,Wunderground v.1.15,2013-06-10 06:00:00,
2013-06-09 23:06:00,48.6,45.8,30.02,NNE,28,8.0,15.0,90,0.00,,,0.00,Wunderground v.1.15,2013-06-10 06:06:00,
2013-06-09 23:11:00,48.7,45.9,30.02,North,360,7.0,15.0,90,0.00,,,0.00,Wunderground v.1.15,2013-06-10 06:11:00,
2013-06-09 23:16:00,48.8,46.0,30.02,NNE,16,7.0,15.0,90,0.00,,,0.00,Wunderground v.1.15,2013-06-10 06:16:00,
2013-06-09 23:22:00,48.8,46.0,30.02,North,350,7.0,15.0,90,0.00,,,0.00,Wunderground v.1.15,2013-06-10 06:22:00,
2013-06-09 23:27:00,48.8,46.0,30.02,NNE,22,8.0,15.0,90,0.00,,,0.00,Wunderground v.1.15,2013-06-10 06:27:00,
2013-06-09 23:33:00,48.8,46.0,30.02,NE,40,7.0,15.0,90,0.00,,,0.00,Wunderground v.1.15,2013-06-10 06:33:00,
2013-06-09 23:39:00,48.8,46.0,30.02,NNE,31,7.0,15.0,90,0.00,,,0.00,Wunderground v.1.15,2013-06-10 06:39:00,
2013-06-09 23:45:00,48.7,45.9,30.01,NE,40,6.0,15.0,90,0.00,,,0.00,Wunderground v.1.15,2013-06-10 06:45:00,
2013-06-09 23:50:00,48.8,46.0,30.02,NNE,12,6.0,15.0,90,0.00,,,0.00,Wunderground v.1.15,2013-06-10 06:50:00,
2013-06-09 23:56:00,48.9,46.1,30.02,NE,40,6.0,15.0,90,0.00,,,0.00,Wunderground v.1.15,2013-06-10 06:56:00,